sensor_id;sensor_type;location;lat;lon;timestamp;P1;durP1;ratioP1;P2;durP2;ratioP2
47129;SDS011;69689;48.122;11.542;2023-11-19T00:02:07;2.90;;;0.65;;
47129;SDS011;69689;48.122;11.542;2023-11-19T00:04:33;1.65;;;0.57;;
47129;SDS011;69689;48.122;11.542;2023-11-19T00:07:01;1.35;;;0.70;;
47129;SDS011;69689;48.122;11.542;2023-11-19T00:09:29;1.38;;;0.80;;
47129;SDS011;69689;48.122;11.542;2023-11-19T00:11:54;0.90;;;0.60;;
47129;SDS011;69689;48.122;11.542;2023-11-19T00:14:20;1.35;;;0.60;;
47129;SDS011;69689;48.122;11.542;2023-11-19T00:16:45;2.72;;;0.60;;
47129;SDS011;69689;48.122;11.542;2023-11-19T00:19:11;0.77;;;0.55;;
47129;SDS011;69689;48.122;11.542;2023-11-19T00:21:36;1.33;;;0.50;;
47129;SDS011;69689;48.122;11.542;2023-11-19T00:24:02;0.80;;;0.47;;
47129;SDS011;69689;48.122;11.542;2023-11-19T00:26:27;0.65;;;0.60;;
47129;SDS011;69689;48.122;11.542;2023-11-19T00:28:52;0.50;;;0.50;;
47129;SDS011;69689;48.122;11.542;2023-11-19T00:31:18;3.05;;;0.77;;
47129;SDS011;69689;48.122;11.542;2023-11-19T00:33:43;1.58;;;0.50;;
47129;SDS011;69689;48.122;11.542;2023-11-19T00:36:08;2.55;;;0.57;;
47129;SDS011;69689;48.122;11.542;2023-11-19T00:38:34;2.63;;;0.60;;
47129;SDS011;69689;48.122;11.542;2023-11-19T00:40:59;0.93;;;0.45;;
47129;SDS011;69689;48.122;11.542;2023-11-19T00:43:24;2.33;;;0.70;;
47129;SDS011;69689;48.122;11.542;2023-11-19T00:45:51;0.98;;;0.50;;
47129;SDS011;69689;48.122;11.542;2023-11-19T00:48:16;1.52;;;0.63;;
47129;SDS011;69689;48.122;11.542;2023-11-19T00:50:42;2.60;;;0.70;;
47129;SDS011;69689;48.122;11.542;2023-11-19T00:53:09;1.70;;;0.55;;
47129;SDS011;69689;48.122;11.542;2023-11-19T00:55:34;1.48;;;0.68;;
47129;SDS011;69689;48.122;11.542;2023-11-19T00:58:00;0.43;;;0.40;;
47129;SDS011;69689;48.122;11.542;2023-11-19T01:00:25;1.67;;;0.60;;
47129;SDS011;69689;48.122;11.542;2023-11-19T01:02:52;3.08;;;0.70;;
47129;SDS011;69689;48.122;11.542;2023-11-19T01:05:17;1.92;;;0.80;;
47129;SDS011;69689;48.122;11.542;2023-11-19T01:07:47;0.90;;;0.50;;
47129;SDS011;69689;48.122;11.542;2023-11-19T01:10:12;2.00;;;0.68;;
47129;SDS011;69689;48.122;11.542;2023-11-19T01:12:38;1.10;;;0.50;;
47129;SDS011;69689;48.122;11.542;2023-11-19T01:15:03;2.28;;;0.85;;
47129;SDS011;69689;48.122;11.542;2023-11-19T01:17:30;1.15;;;0.70;;
47129;SDS011;69689;48.122;11.542;2023-11-19T01:19:56;0.70;;;0.55;;
47129;SDS011;69689;48.122;11.542;2023-11-19T01:22:22;1.27;;;1.13;;
47129;SDS011;69689;48.122;11.542;2023-11-19T01:24:48;2.00;;;0.80;;
47129;SDS011;69689;48.122;11.542;2023-11-19T01:27:13;0.55;;;0.40;;
47129;SDS011;69689;48.122;11.542;2023-11-19T01:29:39;1.00;;;0.47;;
47129;SDS011;69689;48.122;11.542;2023-11-19T01:32:04;1.25;;;0.60;;
47129;SDS011;69689;48.122;11.542;2023-11-19T01:34:30;0.93;;;0.50;;
47129;SDS011;69689;48.122;11.542;2023-11-19T01:36:55;1.83;;;0.98;;
47129;SDS011;69689;48.122;11.542;2023-11-19T01:39:20;0.75;;;0.50;;
47129;SDS011;69689;48.122;11.542;2023-11-19T01:41:46;1.38;;;0.50;;
47129;SDS011;69689;48.122;11.542;2023-11-19T01:44:11;1.00;;;0.60;;
47129;SDS011;69689;48.122;11.542;2023-11-19T01:46:43;1.55;;;0.55;;
47129;SDS011;69689;48.122;11.542;2023-11-19T01:49:10;0.82;;;0.40;;
47129;SDS011;69689;48.122;11.542;2023-11-19T01:51:36;1.23;;;0.60;;
47129;SDS011;69689;48.122;11.542;2023-11-19T01:54:03;0.80;;;0.50;;
47129;SDS011;69689;48.122;11.542;2023-11-19T01:56:28;3.03;;;0.73;;
47129;SDS011;69689;48.122;11.542;2023-11-19T01:58:55;0.65;;;0.40;;
47129;SDS011;69689;48.122;11.542;2023-11-19T02:01:21;1.33;;;0.60;;
47129;SDS011;69689;48.122;11.542;2023-11-19T02:03:47;2.05;;;0.45;;
47129;SDS011;69689;48.122;11.542;2023-11-19T02:06:12;0.40;;;0.30;;
47129;SDS011;69689;48.122;11.542;2023-11-19T02:08:37;0.30;;;0.30;;
47129;SDS011;69689;48.122;11.542;2023-11-19T02:11:03;1.05;;;0.63;;
47129;SDS011;69689;48.122;11.542;2023-11-19T02:13:31;0.70;;;0.50;;
47129;SDS011;69689;48.122;11.542;2023-11-19T02:15:57;0.88;;;0.63;;
47129;SDS011;69689;48.122;11.542;2023-11-19T02:18:23;1.30;;;0.50;;
47129;SDS011;69689;48.122;11.542;2023-11-19T02:20:52;1.50;;;0.60;;
47129;SDS011;69689;48.122;11.542;2023-11-19T02:23:21;0.73;;;0.60;;
47129;SDS011;69689;48.122;11.542;2023-11-19T02:25:47;1.35;;;0.60;;
47129;SDS011;69689;48.122;11.542;2023-11-19T02:28:24;1.35;;;0.75;;
47129;SDS011;69689;48.122;11.542;2023-11-19T02:30:50;0.77;;;0.30;;
47129;SDS011;69689;48.122;11.542;2023-11-19T02:33:15;0.98;;;0.90;;
47129;SDS011;69689;48.122;11.542;2023-11-19T02:35:40;1.50;;;0.60;;
47129;SDS011;69689;48.122;11.542;2023-11-19T02:38:06;1.85;;;0.68;;
47129;SDS011;69689;48.122;11.542;2023-11-19T02:40:32;0.68;;;0.50;;
47129;SDS011;69689;48.122;11.542;2023-11-19T02:42:57;0.80;;;0.60;;
47129;SDS011;69689;48.122;11.542;2023-11-19T02:45:23;1.65;;;0.52;;
47129;SDS011;69689;48.122;11.542;2023-11-19T02:47:49;0.55;;;0.40;;
47129;SDS011;69689;48.122;11.542;2023-11-19T02:50:14;2.25;;;0.40;;
47129;SDS011;69689;48.122;11.542;2023-11-19T02:52:40;0.45;;;0.40;;
47129;SDS011;69689;48.122;11.542;2023-11-19T02:55:06;1.70;;;1.00;;
47129;SDS011;69689;48.122;11.542;2023-11-19T02:57:35;1.50;;;0.68;;
47129;SDS011;69689;48.122;11.542;2023-11-19T03:00:00;0.77;;;0.40;;
47129;SDS011;69689;48.122;11.542;2023-11-19T03:02:25;1.00;;;0.50;;
47129;SDS011;69689;48.122;11.542;2023-11-19T03:04:58;0.40;;;0.40;;
47129;SDS011;69689;48.122;11.542;2023-11-19T03:07:24;1.55;;;0.65;;
47129;SDS011;69689;48.122;11.542;2023-11-19T03:09:49;0.40;;;0.40;;
47129;SDS011;69689;48.122;11.542;2023-11-19T03:12:14;1.05;;;0.50;;
47129;SDS011;69689;48.122;11.542;2023-11-19T03:14:40;1.55;;;0.50;;
47129;SDS011;69689;48.122;11.542;2023-11-19T03:17:05;1.88;;;0.40;;
47129;SDS011;69689;48.122;11.542;2023-11-19T03:19:30;1.10;;;0.50;;
47129;SDS011;69689;48.122;11.542;2023-11-19T03:21:56;0.52;;;0.40;;
47129;SDS011;69689;48.122;11.542;2023-11-19T03:24:21;1.65;;;0.50;;
47129;SDS011;69689;48.122;11.542;2023-11-19T03:26:49;0.93;;;0.60;;
47129;SDS011;69689;48.122;11.542;2023-11-19T03:29:15;0.55;;;0.38;;
47129;SDS011;69689;48.122;11.542;2023-11-19T03:31:43;0.93;;;0.50;;
47129;SDS011;69689;48.122;11.542;2023-11-19T03:34:09;2.00;;;0.40;;
47129;SDS011;69689;48.122;11.542;2023-11-19T03:36:35;0.57;;;0.50;;
47129;SDS011;69689;48.122;11.542;2023-11-19T03:39:00;1.15;;;0.50;;
47129;SDS011;69689;48.122;11.542;2023-11-19T03:41:25;0.85;;;0.40;;
47129;SDS011;69689;48.122;11.542;2023-11-19T03:43:51;0.70;;;0.40;;
47129;SDS011;69689;48.122;11.542;2023-11-19T03:46:18;0.45;;;0.28;;
47129;SDS011;69689;48.122;11.542;2023-11-19T03:48:44;1.20;;;0.35;;
47129;SDS011;69689;48.122;11.542;2023-11-19T03:51:09;0.88;;;0.30;;
47129;SDS011;69689;48.122;11.542;2023-11-19T03:53:34;0.70;;;0.50;;
47129;SDS011;69689;48.122;11.542;2023-11-19T03:56:00;1.67;;;0.47;;
47129;SDS011;69689;48.122;11.542;2023-11-19T03:58:26;1.45;;;0.40;;
47129;SDS011;69689;48.122;11.542;2023-11-19T04:00:51;1.27;;;0.57;;
47129;SDS011;69689;48.122;11.542;2023-11-19T04:03:17;0.40;;;0.30;;
47129;SDS011;69689;48.122;11.542;2023-11-19T04:05:44;0.70;;;0.40;;
47129;SDS011;69689;48.122;11.542;2023-11-19T04:08:09;0.65;;;0.43;;
47129;SDS011;69689;48.122;11.542;2023-11-19T04:10:35;1.27;;;0.65;;
47129;SDS011;69689;48.122;11.542;2023-11-19T04:13:00;1.00;;;0.43;;
47129;SDS011;69689;48.122;11.542;2023-11-19T04:15:26;0.75;;;0.40;;
47129;SDS011;69689;48.122;11.542;2023-11-19T04:17:51;0.85;;;0.47;;
47129;SDS011;69689;48.122;11.542;2023-11-19T04:20:16;1.48;;;0.32;;
47129;SDS011;69689;48.122;11.542;2023-11-19T04:22:42;0.47;;;0.40;;
47129;SDS011;69689;48.122;11.542;2023-11-19T04:25:07;0.38;;;0.30;;
47129;SDS011;69689;48.122;11.542;2023-11-19T04:27:33;1.02;;;0.30;;
47129;SDS011;69689;48.122;11.542;2023-11-19T04:29:58;0.70;;;0.40;;
47129;SDS011;69689;48.122;11.542;2023-11-19T04:32:26;0.85;;;0.40;;
47129;SDS011;69689;48.122;11.542;2023-11-19T04:34:52;1.08;;;0.40;;
47129;SDS011;69689;48.122;11.542;2023-11-19T04:37:17;1.10;;;0.50;;
47129;SDS011;69689;48.122;11.542;2023-11-19T04:39:44;0.50;;;0.30;;
47129;SDS011;69689;48.122;11.542;2023-11-19T04:42:11;0.47;;;0.30;;
47129;SDS011;69689;48.122;11.542;2023-11-19T04:44:36;0.30;;;0.28;;
47129;SDS011;69689;48.122;11.542;2023-11-19T04:47:01;1.00;;;0.30;;
47129;SDS011;69689;48.122;11.542;2023-11-19T04:49:27;0.73;;;0.43;;
47129;SDS011;69689;48.122;11.542;2023-11-19T04:51:52;1.55;;;0.40;;
47129;SDS011;69689;48.122;11.542;2023-11-19T04:54:18;0.73;;;0.30;;
47129;SDS011;69689;48.122;11.542;2023-11-19T04:56:46;0.57;;;0.45;;
47129;SDS011;69689;48.122;11.542;2023-11-19T04:59:12;1.42;;;0.50;;
47129;SDS011;69689;48.122;11.542;2023-11-19T05:01:37;0.30;;;0.30;;
47129;SDS011;69689;48.122;11.542;2023-11-19T05:04:03;0.57;;;0.40;;
47129;SDS011;69689;48.122;11.542;2023-11-19T05:06:29;0.80;;;0.38;;
47129;SDS011;69689;48.122;11.542;2023-11-19T05:08:55;2.13;;;0.40;;
47129;SDS011;69689;48.122;11.542;2023-11-19T05:11:21;0.93;;;0.40;;
47129;SDS011;69689;48.122;11.542;2023-11-19T05:13:46;1.88;;;0.47;;
47129;SDS011;69689;48.122;11.542;2023-11-19T05:16:12;0.35;;;0.30;;
47129;SDS011;69689;48.122;11.542;2023-11-19T05:18:40;0.82;;;0.30;;
47129;SDS011;69689;48.122;11.542;2023-11-19T05:21:06;1.50;;;0.50;;
47129;SDS011;69689;48.122;11.542;2023-11-19T05:23:32;0.35;;;0.30;;
47129;SDS011;69689;48.122;11.542;2023-11-19T05:25:58;0.45;;;0.40;;
47129;SDS011;69689;48.122;11.542;2023-11-19T05:28:24;0.30;;;0.30;;
47129;SDS011;69689;48.122;11.542;2023-11-19T05:30:51;0.63;;;0.35;;
47129;SDS011;69689;48.122;11.542;2023-11-19T05:33:16;0.65;;;0.30;;
47129;SDS011;69689;48.122;11.542;2023-11-19T05:35:41;0.68;;;0.40;;
47129;SDS011;69689;48.122;11.542;2023-11-19T05:38:07;1.63;;;0.30;;
47129;SDS011;69689;48.122;11.542;2023-11-19T05:40:32;0.63;;;0.30;;
47129;SDS011;69689;48.122;11.542;2023-11-19T05:42:57;1.13;;;0.38;;
47129;SDS011;69689;48.122;11.542;2023-11-19T05:45:23;1.13;;;0.38;;
47129;SDS011;69689;48.122;11.542;2023-11-19T05:47:48;0.57;;;0.40;;
47129;SDS011;69689;48.122;11.542;2023-11-19T05:50:13;0.88;;;0.32;;
47129;SDS011;69689;48.122;11.542;2023-11-19T05:52:39;0.30;;;0.30;;
47129;SDS011;69689;48.122;11.542;2023-11-19T05:55:04;4.80;;;0.55;;
47129;SDS011;69689;48.122;11.542;2023-11-19T05:57:34;0.45;;;0.30;;
47129;SDS011;69689;48.122;11.542;2023-11-19T05:59:59;1.23;;;0.30;;
47129;SDS011;69689;48.122;11.542;2023-11-19T06:02:25;1.05;;;0.40;;
47129;SDS011;69689;48.122;11.542;2023-11-19T06:04:52;0.63;;;0.40;;
47129;SDS011;69689;48.122;11.542;2023-11-19T06:07:18;0.47;;;0.30;;
47129;SDS011;69689;48.122;11.542;2023-11-19T06:09:43;0.30;;;0.30;;
47129;SDS011;69689;48.122;11.542;2023-11-19T06:12:08;0.85;;;0.30;;
47129;SDS011;69689;48.122;11.542;2023-11-19T06:14:34;0.85;;;0.38;;
47129;SDS011;69689;48.122;11.542;2023-11-19T06:16:59;0.70;;;0.40;;
47129;SDS011;69689;48.122;11.542;2023-11-19T06:19:25;0.32;;;0.30;;
47129;SDS011;69689;48.122;11.542;2023-11-19T06:21:50;3.13;;;0.40;;
47129;SDS011;69689;48.122;11.542;2023-11-19T06:24:15;1.60;;;0.40;;
47129;SDS011;69689;48.122;11.542;2023-11-19T06:26:41;1.05;;;0.30;;
47129;SDS011;69689;48.122;11.542;2023-11-19T06:29:06;1.98;;;0.60;;
47129;SDS011;69689;48.122;11.542;2023-11-19T06:31:32;1.13;;;0.32;;
47129;SDS011;69689;48.122;11.542;2023-11-19T06:33:57;1.05;;;0.22;;
47129;SDS011;69689;48.122;11.542;2023-11-19T06:36:22;3.25;;;0.50;;
47129;SDS011;69689;48.122;11.542;2023-11-19T06:38:47;0.80;;;0.50;;
47129;SDS011;69689;48.122;11.542;2023-11-19T06:41:13;1.58;;;0.30;;
47129;SDS011;69689;48.122;11.542;2023-11-19T06:43:38;0.55;;;0.40;;
47129;SDS011;69689;48.122;11.542;2023-11-19T06:46:04;0.95;;;0.30;;
47129;SDS011;69689;48.122;11.542;2023-11-19T06:48:31;1.30;;;0.40;;
47129;SDS011;69689;48.122;11.542;2023-11-19T06:50:57;1.17;;;0.30;;
47129;SDS011;69689;48.122;11.542;2023-11-19T06:53:22;1.05;;;0.52;;
47129;SDS011;69689;48.122;11.542;2023-11-19T06:55:48;0.75;;;0.20;;
47129;SDS011;69689;48.122;11.542;2023-11-19T06:58:13;1.15;;;0.35;;
47129;SDS011;69689;48.122;11.542;2023-11-19T07:00:38;0.77;;;0.30;;
47129;SDS011;69689;48.122;11.542;2023-11-19T07:03:04;0.85;;;0.30;;
47129;SDS011;69689;48.122;11.542;2023-11-19T07:05:31;2.88;;;0.60;;
47129;SDS011;69689;48.122;11.542;2023-11-19T07:07:56;1.85;;;0.85;;
47129;SDS011;69689;48.122;11.542;2023-11-19T07:10:21;0.40;;;0.35;;
47129;SDS011;69689;48.122;11.542;2023-11-19T07:12:47;1.83;;;0.60;;
47129;SDS011;69689;48.122;11.542;2023-11-19T07:15:15;1.23;;;0.47;;
47129;SDS011;69689;48.122;11.542;2023-11-19T07:17:42;1.38;;;0.30;;
47129;SDS011;69689;48.122;11.542;2023-11-19T07:20:09;2.28;;;0.40;;
47129;SDS011;69689;48.122;11.542;2023-11-19T07:22:40;0.73;;;0.45;;
47129;SDS011;69689;48.122;11.542;2023-11-19T07:25:08;0.55;;;0.40;;
47129;SDS011;69689;48.122;11.542;2023-11-19T07:27:33;1.40;;;0.28;;
47129;SDS011;69689;48.122;11.542;2023-11-19T07:29:58;0.38;;;0.35;;
47129;SDS011;69689;48.122;11.542;2023-11-19T07:32:24;0.43;;;0.20;;
47129;SDS011;69689;48.122;11.542;2023-11-19T07:34:49;0.43;;;0.38;;
47129;SDS011;69689;48.122;11.542;2023-11-19T07:37:15;1.65;;;0.30;;
47129;SDS011;69689;48.122;11.542;2023-11-19T07:39:41;1.50;;;0.40;;
47129;SDS011;69689;48.122;11.542;2023-11-19T07:42:07;1.08;;;0.30;;
47129;SDS011;69689;48.122;11.542;2023-11-19T07:44:32;0.95;;;0.50;;
47129;SDS011;69689;48.122;11.542;2023-11-19T07:46:57;1.80;;;0.35;;
47129;SDS011;69689;48.122;11.542;2023-11-19T07:49:23;0.98;;;0.20;;
47129;SDS011;69689;48.122;11.542;2023-11-19T07:51:48;0.70;;;0.30;;
47129;SDS011;69689;48.122;11.542;2023-11-19T07:54:14;1.67;;;0.43;;
47129;SDS011;69689;48.122;11.542;2023-11-19T09:21:01;7.78;;;1.92;;
47129;SDS011;69689;48.122;11.542;2023-11-19T09:23:27;2.90;;;0.80;;
47129;SDS011;69689;48.122;11.542;2023-11-19T09:25:55;2.35;;;0.80;;
47129;SDS011;69689;48.122;11.542;2023-11-19T09:28:20;3.75;;;0.57;;
47129;SDS011;69689;48.122;11.542;2023-11-19T09:30:46;1.05;;;0.47;;
47129;SDS011;69689;48.122;11.542;2023-11-19T09:33:11;1.65;;;0.93;;
47129;SDS011;69689;48.122;11.542;2023-11-19T09:35:36;1.05;;;0.45;;
47129;SDS011;69689;48.122;11.542;2023-11-19T09:38:02;5.88;;;0.80;;
47129;SDS011;69689;48.122;11.542;2023-11-19T09:40:27;1.10;;;0.50;;
47129;SDS011;69689;48.122;11.542;2023-11-19T09:42:53;2.40;;;0.60;;
47129;SDS011;69689;48.122;11.542;2023-11-19T09:45:21;1.05;;;0.50;;
47129;SDS011;69689;48.122;11.542;2023-11-19T09:47:47;1.80;;;0.50;;
47129;SDS011;69689;48.122;11.542;2023-11-19T09:50:14;1.73;;;0.55;;
47129;SDS011;69689;48.122;11.542;2023-11-19T09:52:40;4.85;;;0.43;;
47129;SDS011;69689;48.122;11.542;2023-11-19T09:55:06;1.08;;;0.50;;
47129;SDS011;69689;48.122;11.542;2023-11-19T09:57:32;1.00;;;0.65;;
47129;SDS011;69689;48.122;11.542;2023-11-19T09:59:58;0.88;;;0.52;;
47129;SDS011;69689;48.122;11.542;2023-11-19T10:02:23;0.65;;;0.40;;
47129;SDS011;69689;48.122;11.542;2023-11-19T10:04:48;0.60;;;0.52;;
47129;SDS011;69689;48.122;11.542;2023-11-19T10:07:15;1.00;;;0.40;;
47129;SDS011;69689;48.122;11.542;2023-11-19T10:09:40;4.57;;;0.77;;
47129;SDS011;69689;48.122;11.542;2023-11-19T10:12:05;1.27;;;0.43;;
47129;SDS011;69689;48.122;11.542;2023-11-19T10:14:31;2.92;;;0.43;;
47129;SDS011;69689;48.122;11.542;2023-11-19T10:16:57;1.45;;;0.43;;
47129;SDS011;69689;48.122;11.542;2023-11-19T10:19:23;1.65;;;0.65;;
47129;SDS011;69689;48.122;11.542;2023-11-19T10:21:49;1.65;;;0.30;;
47129;SDS011;69689;48.122;11.542;2023-11-19T10:24:14;0.85;;;0.35;;
47129;SDS011;69689;48.122;11.542;2023-11-19T10:26:39;0.52;;;0.40;;
47129;SDS011;69689;48.122;11.542;2023-11-19T10:29:05;1.45;;;0.20;;
47129;SDS011;69689;48.122;11.542;2023-11-19T10:31:31;0.32;;;0.30;;
47129;SDS011;69689;48.122;11.542;2023-11-19T10:33:56;0.35;;;0.35;;
47129;SDS011;69689;48.122;11.542;2023-11-19T10:36:22;3.13;;;0.60;;
47129;SDS011;69689;48.122;11.542;2023-11-19T10:38:55;10.63;;;0.65;;
47129;SDS011;69689;48.122;11.542;2023-11-19T10:41:31;3.78;;;1.25;;
47129;SDS011;69689;48.122;11.542;2023-11-19T10:43:57;11.82;;;5.72;;
47129;SDS011;69689;48.122;11.542;2023-11-19T10:46:23;6.43;;;3.03;;
47129;SDS011;69689;48.122;11.542;2023-11-19T10:49:05;5.80;;;3.10;;
47129;SDS011;69689;48.122;11.542;2023-11-19T10:51:31;9.82;;;2.70;;
47129;SDS011;69689;48.122;11.542;2023-11-19T10:53:57;9.27;;;2.20;;
47129;SDS011;69689;48.122;11.542;2023-11-19T10:56:31;14.32;;;2.83;;
47129;SDS011;69689;48.122;11.542;2023-11-19T10:58:57;10.50;;;2.20;;
47129;SDS011;69689;48.122;11.542;2023-11-19T11:01:24;5.43;;;1.90;;
47129;SDS011;69689;48.122;11.542;2023-11-19T11:03:52;5.57;;;1.50;;
47129;SDS011;69689;48.122;11.542;2023-11-19T11:06:19;4.35;;;1.40;;
47129;SDS011;69689;48.122;11.542;2023-11-19T11:08:44;5.53;;;1.30;;
47129;SDS011;69689;48.122;11.542;2023-11-19T11:11:11;2.83;;;1.38;;
47129;SDS011;69689;48.122;11.542;2023-11-19T11:13:38;3.47;;;1.77;;
47129;SDS011;69689;48.122;11.542;2023-11-19T11:16:06;2.30;;;0.90;;
47129;SDS011;69689;48.122;11.542;2023-11-19T11:18:32;2.70;;;1.58;;
47129;SDS011;69689;48.122;11.542;2023-11-19T11:29:16;10.00;;;2.67;;
47129;SDS011;69689;48.122;11.542;2023-11-19T11:39:41;20.00;;;4.70;;
47129;SDS011;69689;48.122;11.542;2023-11-19T11:45:06;23.67;;;6.15;;
47129;SDS011;69689;48.122;11.542;2023-11-19T11:50:11;16.45;;;5.93;;
47129;SDS011;69689;48.122;11.542;2023-11-19T11:57:59;25.95;;;9.27;;
47129;SDS011;69689;48.122;11.542;2023-11-19T12:00:31;23.17;;;7.30;;
47129;SDS011;69689;48.122;11.542;2023-11-19T12:03:01;15.57;;;5.70;;
47129;SDS011;69689;48.122;11.542;2023-11-19T12:05:27;18.02;;;4.57;;
47129;SDS011;69689;48.122;11.542;2023-11-19T12:07:56;14.93;;;4.35;;
47129;SDS011;69689;48.122;11.542;2023-11-19T12:10:24;20.37;;;5.77;;
47129;SDS011;69689;48.122;11.542;2023-11-19T12:12:49;75.10;;;33.85;;
47129;SDS011;69689;48.122;11.542;2023-11-19T12:15:17;35.00;;;12.63;;
47129;SDS011;69689;48.122;11.542;2023-11-19T12:17:50;52.50;;;21.02;;
47129;SDS011;69689;48.122;11.542;2023-11-19T12:22:42;184.88;;;87.13;;
47129;SDS011;69689;48.122;11.542;2023-11-19T12:25:09;114.72;;;52.33;;
47129;SDS011;69689;48.122;11.542;2023-11-19T12:27:35;134.32;;;62.42;;
47129;SDS011;69689;48.122;11.542;2023-11-19T12:30:01;309.40;;;154.95;;
47129;SDS011;69689;48.122;11.542;2023-11-19T12:32:37;282.50;;;148.60;;
47129;SDS011;69689;48.122;11.542;2023-11-19T12:35:03;236.73;;;122.95;;
47129;SDS011;69689;48.122;11.542;2023-11-19T12:37:29;193.32;;;102.35;;
47129;SDS011;69689;48.122;11.542;2023-11-19T12:39:56;170.75;;;90.00;;
47129;SDS011;69689;48.122;11.542;2023-11-19T12:42:34;161.27;;;84.95;;
47129;SDS011;69689;48.122;11.542;2023-11-19T12:45:00;138.85;;;68.95;;
47129;SDS011;69689;48.122;11.542;2023-11-19T12:47:25;136.48;;;70.15;;
47129;SDS011;69689;48.122;11.542;2023-11-19T12:49:57;138.95;;;73.20;;
47129;SDS011;69689;48.122;11.542;2023-11-19T12:52:23;97.32;;;49.55;;
47129;SDS011;69689;48.122;11.542;2023-11-19T12:54:48;79.55;;;41.45;;
47129;SDS011;69689;48.122;11.542;2023-11-19T12:57:14;60.92;;;32.10;;
47129;SDS011;69689;48.122;11.542;2023-11-19T12:59:40;79.55;;;42.20;;
47129;SDS011;69689;48.122;11.542;2023-11-19T13:02:05;73.15;;;35.72;;
47129;SDS011;69689;48.122;11.542;2023-11-19T13:04:32;54.28;;;27.02;;
47129;SDS011;69689;48.122;11.542;2023-11-19T13:06:57;51.22;;;25.17;;
47129;SDS011;69689;48.122;11.542;2023-11-19T13:09:24;48.78;;;22.95;;
47129;SDS011;69689;48.122;11.542;2023-11-19T13:11:50;53.95;;;24.23;;
47129;SDS011;69689;48.122;11.542;2023-11-19T13:14:16;38.40;;;21.55;;
47129;SDS011;69689;48.122;11.542;2023-11-19T13:16:41;34.65;;;17.48;;
47129;SDS011;69689;48.122;11.542;2023-11-19T13:19:11;32.65;;;15.77;;
47129;SDS011;69689;48.122;11.542;2023-11-19T13:21:37;25.33;;;14.07;;
47129;SDS011;69689;48.122;11.542;2023-11-19T13:24:03;28.38;;;13.45;;
47129;SDS011;69689;48.122;11.542;2023-11-19T13:26:28;26.85;;;10.70;;
47129;SDS011;69689;48.122;11.542;2023-11-19T13:28:53;25.20;;;10.50;;
47129;SDS011;69689;48.122;11.542;2023-11-19T13:31:19;19.48;;;8.82;;
47129;SDS011;69689;48.122;11.542;2023-11-19T13:33:44;13.73;;;7.90;;
47129;SDS011;69689;48.122;11.542;2023-11-19T13:36:09;18.55;;;6.97;;
47129;SDS011;69689;48.122;11.542;2023-11-19T13:38:35;14.27;;;6.93;;
47129;SDS011;69689;48.122;11.542;2023-11-19T13:41:01;15.05;;;6.45;;
47129;SDS011;69689;48.122;11.542;2023-11-19T13:43:29;18.60;;;8.27;;
47129;SDS011;69689;48.122;11.542;2023-11-19T13:45:55;19.60;;;9.60;;
47129;SDS011;69689;48.122;11.542;2023-11-19T13:48:21;22.92;;;10.55;;
47129;SDS011;69689;48.122;11.542;2023-11-19T13:50:46;21.42;;;11.35;;
47129;SDS011;69689;48.122;11.542;2023-11-19T13:53:11;21.63;;;10.32;;
47129;SDS011;69689;48.122;11.542;2023-11-19T13:55:37;20.60;;;9.93;;
47129;SDS011;69689;48.122;11.542;2023-11-19T13:58:03;23.63;;;11.40;;
47129;SDS011;69689;48.122;11.542;2023-11-19T14:00:29;23.35;;;12.00;;
47129;SDS011;69689;48.122;11.542;2023-11-19T14:02:54;27.48;;;11.95;;
47129;SDS011;69689;48.122;11.542;2023-11-19T14:05:19;20.83;;;9.90;;
47129;SDS011;69689;48.122;11.542;2023-11-19T14:07:45;24.77;;;11.43;;
47129;SDS011;69689;48.122;11.542;2023-11-19T14:10:13;21.95;;;10.85;;
47129;SDS011;69689;48.122;11.542;2023-11-19T14:12:38;26.33;;;10.80;;
47129;SDS011;69689;48.122;11.542;2023-11-19T14:15:08;18.95;;;9.65;;
47129;SDS011;69689;48.122;11.542;2023-11-19T14:17:42;23.20;;;10.23;;
47129;SDS011;69689;48.122;11.542;2023-11-19T14:20:07;15.75;;;8.98;;
47129;SDS011;69689;48.122;11.542;2023-11-19T14:22:40;20.65;;;8.88;;
47129;SDS011;69689;48.122;11.542;2023-11-19T14:25:05;19.38;;;9.52;;
47129;SDS011;69689;48.122;11.542;2023-11-19T14:27:35;19.38;;;9.80;;
47129;SDS011;69689;48.122;11.542;2023-11-19T14:30:10;19.83;;;8.65;;
47129;SDS011;69689;48.122;11.542;2023-11-19T14:32:38;18.73;;;8.68;;
47129;SDS011;69689;48.122;11.542;2023-11-19T14:35:04;16.73;;;8.45;;
47129;SDS011;69689;48.122;11.542;2023-11-19T14:37:30;16.42;;;8.82;;
47129;SDS011;69689;48.122;11.542;2023-11-19T14:39:58;20.42;;;8.02;;
47129;SDS011;69689;48.122;11.542;2023-11-19T14:42:24;14.75;;;7.47;;
47129;SDS011;69689;48.122;11.542;2023-11-19T14:44:50;14.35;;;7.38;;
47129;SDS011;69689;48.122;11.542;2023-11-19T14:47:17;16.05;;;7.05;;
47129;SDS011;69689;48.122;11.542;2023-11-19T14:49:43;16.92;;;7.25;;
47129;SDS011;69689;48.122;11.542;2023-11-19T14:52:08;15.82;;;7.35;;
47129;SDS011;69689;48.122;11.542;2023-11-19T14:54:33;16.65;;;8.85;;
47129;SDS011;69689;48.122;11.542;2023-11-19T14:56:59;16.25;;;7.88;;
47129;SDS011;69689;48.122;11.542;2023-11-19T14:59:25;14.52;;;7.97;;
47129;SDS011;69689;48.122;11.542;2023-11-19T15:01:50;14.43;;;7.72;;
47129;SDS011;69689;48.122;11.542;2023-11-19T15:04:16;14.60;;;7.60;;
47129;SDS011;69689;48.122;11.542;2023-11-19T15:06:41;14.18;;;6.63;;
47129;SDS011;69689;48.122;11.542;2023-11-19T15:09:07;12.90;;;6.28;;
47129;SDS011;69689;48.122;11.542;2023-11-19T15:11:33;18.77;;;7.90;;
47129;SDS011;69689;48.122;11.542;2023-11-19T15:13:58;14.68;;;6.32;;
47129;SDS011;69689;48.122;11.542;2023-11-19T15:16:25;16.95;;;7.68;;
47129;SDS011;69689;48.122;11.542;2023-11-19T15:18:58;19.88;;;6.80;;
47129;SDS011;69689;48.122;11.542;2023-11-19T15:21:29;13.80;;;6.50;;
47129;SDS011;69689;48.122;11.542;2023-11-19T15:23:55;14.23;;;6.38;;
47129;SDS011;69689;48.122;11.542;2023-11-19T15:26:21;14.45;;;6.53;;
47129;SDS011;69689;48.122;11.542;2023-11-19T15:28:47;19.38;;;5.88;;
47129;SDS011;69689;48.122;11.542;2023-11-19T15:31:12;14.45;;;5.78;;
47129;SDS011;69689;48.122;11.542;2023-11-19T15:33:39;11.30;;;6.13;;
47129;SDS011;69689;48.122;11.542;2023-11-19T15:36:05;14.88;;;5.85;;
47129;SDS011;69689;48.122;11.542;2023-11-19T15:38:33;15.80;;;6.35;;
47129;SDS011;69689;48.122;11.542;2023-11-19T15:41:01;14.05;;;6.70;;
47129;SDS011;69689;48.122;11.542;2023-11-19T15:43:27;18.13;;;5.97;;
47129;SDS011;69689;48.122;11.542;2023-11-19T15:45:54;12.63;;;5.68;;
47129;SDS011;69689;48.122;11.542;2023-11-19T15:48:19;12.13;;;6.05;;
47129;SDS011;69689;48.122;11.542;2023-11-19T15:50:44;12.10;;;6.03;;
47129;SDS011;69689;48.122;11.542;2023-11-19T15:53:10;11.38;;;5.47;;
47129;SDS011;69689;48.122;11.542;2023-11-19T15:55:35;12.05;;;6.15;;
47129;SDS011;69689;48.122;11.542;2023-11-19T15:58:01;9.88;;;4.90;;
47129;SDS011;69689;48.122;11.542;2023-11-19T16:00:26;21.02;;;5.97;;
47129;SDS011;69689;48.122;11.542;2023-11-19T16:02:52;11.10;;;5.25;;
47129;SDS011;69689;48.122;11.542;2023-11-19T16:05:18;11.65;;;5.30;;
47129;SDS011;69689;48.122;11.542;2023-11-19T16:07:44;11.68;;;5.50;;
47129;SDS011;69689;48.122;11.542;2023-11-19T16:10:09;13.27;;;5.40;;
47129;SDS011;69689;48.122;11.542;2023-11-19T16:12:37;13.98;;;5.80;;
47129;SDS011;69689;48.122;11.542;2023-11-19T16:15:03;12.18;;;5.30;;
47129;SDS011;69689;48.122;11.542;2023-11-19T16:17:29;9.50;;;4.90;;